Time;durP1;ratioP1;P1;durP2;ratioP2;P2;SDS_P1;SDS_P2;PMS_P1;PMS_P2;Temp;Humidity;BMP_temperature;BMP_pressure;BME280_temperature;BME280_humidity;BME280_pressure;Samples;Min_cycle;Max_cycle;Signal;HPM_P1;HPM_P2
2022/01/01 00:02:06;;;;;;;10.35;6.32;;;;;;;;;;5059399;28;20025;-73
2022/01/01 00:04:33;;;;;;;7.43;6.63;;;;;;;;;;5025310;28;20066;-73
2022/01/01 00:06:58;;;;;;;6.35;5.75;;;;;;;;;;5059789;28;20431;-73
2022/01/01 00:09:24;;;;;;;5.20;4.68;;;;;;;;;;5041279;28;20021;-73
2022/01/01 00:11:51;;;;;;;10.88;8.52;;;;;;;;;;5058786;28;20159;-73
2022/01/01 00:14:17;;;;;;;7.35;6.63;;;;;;;;;;5024974;28;20080;-73
2022/01/01 00:16:43;;;;;;;7.03;5.07;;;;;;;;;;5041392;28;20024;-73
2022/01/01 00:19:09;;;;;;;7.28;5.20;;;;;;;;;;5024940;28;20119;-73
2022/01/01 00:21:35;;;;;;;7.10;6.60;;;;;;;;;;5041418;28;20052;-73
2022/01/01 00:24:01;;;;;;;14.00;9.27;;;;;;;;;;5041128;28;20025;-73
2022/01/01 00:26:26;;;;;;;7.55;7.00;;;;;;;;;;5058332;28;20046;-72
2022/01/01 00:28:52;;;;;;;7.95;7.20;;;;;;;;;;5041184;28;20021;-73
2022/01/01 00:31:18;;;;;;;6.55;6.07;;;;;;;;;;5040926;28;20028;-72
2022/01/01 00:33:44;;;;;;;3.95;3.72;;;;;;;;;;5058282;28;20419;-73
2022/01/01 00:36:11;;;;;;;5.82;5.35;;;;;;;;;;5041149;28;20016;-73
2022/01/01 00:38:37;;;;;;;8.13;6.32;;;;;;;;;;5041221;28;20119;-73
2022/01/01 00:41:03;;;;;;;5.68;4.60;;;;;;;;;;5040833;28;20021;-73
2022/01/01 00:43:29;;;;;;;6.45;6.05;;;;;;;;;;5040871;28;20031;-73
2022/01/01 00:45:55;;;;;;;19.13;7.03;;;;;;;;;;5040467;28;20021;-73
2022/01/01 00:48:21;;;;;;;3.00;2.78;;;;;;;;;;5040367;28;20078;-73
2022/01/01 00:50:47;;;;;;;24.85;11.27;;;;;;;;;;5058487;28;20021;-73
2022/01/01 00:53:13;;;;;;;6.80;6.28;;;;;;;;;;5057802;28;20028;-73
2022/01/01 00:55:39;;;;;;;12.30;11.05;;;;;;;;;;5024340;28;20442;-73
2022/01/01 00:58:05;;;;;;;8.45;7.57;;;;;;;;;;5058381;28;20044;-73
2022/01/01 01:00:32;;;;;;;6.32;5.75;;;;;;;;;;5057692;28;20033;-73
2022/01/01 01:02:58;;;;;;;3.58;3.38;;;;;;;;;;5057740;28;20017;-73
2022/01/01 01:05:24;;;;;;;6.05;5.15;;;;;;;;;;5040356;28;20064;-72
2022/01/01 01:07:50;;;;;;;4.80;4.40;;;;;;;;;;5057602;28;20378;-73
2022/01/01 01:10:16;;;;;;;5.80;5.30;;;;;;;;;;5039930;28;20312;-73
2022/01/01 01:12:47;;;;;;;8.65;7.70;;;;;;;;;;5040385;28;20083;-73
2022/01/01 01:15:17;;;;;;;9.50;5.72;;;;;;;;;;5023919;28;20027;-73
2022/01/01 01:17:44;;;;;;;1.67;1.63;;;;;;;;;;5039746;28;20025;-73
2022/01/01 01:20:11;;;;;;;5.15;4.72;;;;;;;;;;5039630;28;20430;-73
2022/01/01 01:22:37;;;;;;;5.68;5.18;;;;;;;;;;5057329;28;20032;-73
2022/01/01 01:25:03;;;;;;;4.38;4.05;;;;;;;;;;5039882;28;20107;-73
2022/01/01 01:27:30;;;;;;;5.15;3.75;;;;;;;;;;5040004;28;20032;-72
2022/01/01 01:29:59;;;;;;;3.50;3.20;;;;;;;;;;5023669;28;20024;-73
2022/01/01 01:32:25;;;;;;;6.90;3.30;;;;;;;;;;5039451;28;20342;-73
2022/01/01 01:34:51;;;;;;;19.13;6.18;;;;;;;;;;5039383;28;20025;-72
2022/01/01 01:37:17;;;;;;;4.97;4.50;;;;;;;;;;5057667;28;20445;-73
2022/01/01 01:39:43;;;;;;;4.35;3.17;;;;;;;;;;5057832;28;20407;-72
2022/01/01 01:42:09;;;;;;;1.35;1.33;;;;;;;;;;5039282;28;20021;-72
2022/01/01 01:44:42;;;;;;;4.63;4.22;;;;;;;;;;5039327;28;20028;-72
2022/01/01 01:47:15;;;;;;;9.18;8.30;;;;;;;;;;5023415;28;20084;-73
2022/01/01 01:49:42;;;;;;;6.65;6.13;;;;;;;;;;5039133;28;20013;-73
2022/01/01 01:52:08;;;;;;;3.03;2.83;;;;;;;;;;5039663;28;20351;-73
2022/01/01 01:54:35;;;;;;;5.18;3.28;;;;;;;;;;5038811;28;20024;-73
2022/01/01 01:57:01;;;;;;;11.30;7.03;;;;;;;;;;5039524;28;20021;-73
2022/01/01 01:59:27;;;;;;;2.33;2.17;;;;;;;;;;5039325;28;20075;-73
2022/01/01 02:01:53;;;;;;;6.90;4.85;;;;;;;;;;5039511;28;20025;-73
2022/01/01 02:04:19;;;;;;;3.30;3.10;;;;;;;;;;5039225;28;20080;-73
2022/01/01 02:06:45;;;;;;;2.55;2.40;;;;;;;;;;5023011;28;20068;-72
2022/01/01 02:09:12;;;;;;;12.95;5.50;;;;;;;;;;5057140;28;20021;-72
2022/01/01 02:11:38;;;;;;;8.77;4.97;;;;;;;;;;5038827;28;20032;-72
2022/01/01 02:14:37;;;;;;;7.32;1.73;;;;;;;;;;5023024;28;20036;-73
2022/01/01 02:19:21;;;;;;;4.43;4.03;;;;;;;;;;5038450;28;20031;-73
2022/01/01 02:21:47;;;;;;;6.05;4.25;;;;;;;;;;5056327;28;20389;-73
2022/01/01 02:24:13;;;;;;;13.18;4.32;;;;;;;;;;5039081;28;20021;-73
2022/01/01 02:26:39;;;;;;;1.70;1.60;;;;;;;;;;5056809;28;20028;-72
2022/01/01 02:29:05;;;;;;;5.05;4.60;;;;;;;;;;5057073;28;20407;-73
2022/01/01 02:31:33;;;;;;;4.85;4.10;;;;;;;;;;5056244;28;20064;-73
2022/01/01 02:34:03;;;;;;;5.40;4.95;;;;;;;;;;5022737;28;20021;-73
2022/01/01 02:36:30;;;;;;;10.68;5.32;;;;;;;;;;5055359;28;20017;-74
2022/01/01 02:38:56;;;;;;;3.03;2.50;;;;;;;;;;5038499;28;20017;-73
2022/01/01 02:41:22;;;;;;;11.75;4.18;;;;;;;;;;5038296;28;20013;-73
2022/01/01 02:43:48;;;;;;;3.35;2.10;;;;;;;;;;5022753;28;20031;-73
2022/01/01 02:46:14;;;;;;;4.95;4.55;;;;;;;;;;5037257;28;20033;-73
2022/01/01 02:48:44;;;;;;;4.25;3.85;;;;;;;;;;5042985;28;20055;-73
2022/01/01 02:51:10;;;;;;;3.53;3.15;;;;;;;;;;5026626;28;20059;-73
2022/01/01 02:53:37;;;;;;;1.02;1.02;;;;;;;;;;5042864;28;20021;-73
2022/01/01 02:56:03;;;;;;;5.95;4.63;;;;;;;;;;5023468;28;20024;-73
2022/01/01 02:58:31;;;;;;;3.03;2.80;;;;;;;;;;5041167;28;20021;-73
2022/01/01 03:00:58;;;;;;;11.30;3.90;;;;;;;;;;5041981;28;20063;-73
2022/01/01 03:03:26;;;;;;;3.38;2.65;;;;;;;;;;5025841;28;20029;-73
2022/01/01 03:05:54;;;;;;;;;;;;;;;;;;5040899;28;20025;-74
2022/01/01 03:08:26;;;;;;;7.80;3.47;;;;;;;;;;5041880;28;19912;-74
2022/01/01 03:10:54;;;;;;;9.50;4.22;;;;;;;;;;5042266;28;20044;-73
2022/01/01 03:13:22;;;;;;;3.20;3.00;;;;;;;;;;5025523;28;20028;-73
2022/01/01 03:15:48;;;;;;;4.97;4.60;;;;;;;;;;5042032;28;20025;-73
2022/01/01 03:18:14;;;;;;;2.10;2.00;;;;;;;;;;5059585;28;20069;-73
2022/01/01 03:20:41;;;;;;;3.20;3.00;;;;;;;;;;5058638;28;20342;-73
2022/01/01 03:23:07;;;;;;;2.35;2.25;;;;;;;;;;5042201;28;20035;-73
2022/01/01 03:25:33;;;;;;;2.15;2.05;;;;;;;;;;5042464;28;20426;-73
2022/01/01 03:27:59;;;;;;;2.25;1.92;;;;;;;;;;5059897;28;20037;-73
2022/01/01 03:30:28;;;;;;;0.77;0.77;;;;;;;;;;5039106;28;20017;-74
2022/01/01 03:33:02;;;;;;;2.25;2.15;;;;;;;;;;5041377;28;20028;-73
2022/01/01 03:35:30;;;;;;;4.18;3.30;;;;;;;;;;5014775;28;20028;-73
2022/01/01 03:37:56;;;;;;;6.22;4.50;;;;;;;;;;5042162;28;20024;-73
2022/01/01 03:40:22;;;;;;;3.85;3.53;;;;;;;;;;5042128;28;20403;-73
2022/01/01 03:42:48;;;;;;;2.60;2.35;;;;;;;;;;5025793;28;20136;-73
2022/01/01 03:45:18;;;;;;;5.70;3.65;;;;;;;;;;5025347;28;20431;-73
2022/01/01 03:47:45;;;;;;;;;;;;;;;;;;5037642;28;20033;-73
2022/01/01 03:50:11;;;;;;;2.97;2.78;;;;;;;;;;5025115;28;19913;-73
2022/01/01 03:52:42;;;;;;;5.93;5.32;;;;;;;;;;5025517;28;20323;-73
2022/01/01 03:55:08;;;;;;;1.88;1.77;;;;;;;;;;5025428;28;20331;-73
2022/01/01 03:57:35;;;;;;;11.45;6.13;;;;;;;;;;5024496;28;20084;-73
2022/01/01 04:00:01;;;;;;;145.60;72.70;;;;;;;;;;5041582;28;20158;-73
2022/01/01 04:02:27;;;;;;;164.10;80.57;;;;;;;;;;5041370;28;20026;-72
2022/01/01 04:04:53;;;;;;;124.72;63.95;;;;;;;;;;5041350;28;20086;-73
2022/01/01 04:07:19;;;;;;;82.20;44.17;;;;;;;;;;5024999;28;20037;-73
2022/01/01 04:09:46;;;;;;;77.78;40.03;;;;;;;;;;5040375;28;20013;-73
2022/01/01 04:12:12;;;;;;;92.43;46.65;;;;;;;;;;5024945;28;20020;-73
2022/01/01 04:14:38;;;;;;;104.10;53.03;;;;;;;;;;5041556;28;20017;-72
2022/01/01 04:17:04;;;;;;;87.43;46.08;;;;;;;;;;5041482;28;20035;-73
2022/01/01 04:19:39;;;;;;;109.28;63.15;;;;;;;;;;5041194;28;20016;-72
2022/01/01 04:22:06;;;;;;;111.03;59.80;;;;;;;;;;5041199;28;20043;-73
2022/01/01 04:24:32;;;;;;;163.52;80.45;;;;;;;;;;5041374;28;20041;-73
2022/01/01 04:26:58;;;;;;;159.30;88.50;;;;;;;;;;5041201;28;20041;-73
2022/01/01 04:29:24;;;;;;;185.73;103.38;;;;;;;;;;5024762;28;20017;-72
2022/01/01 04:31:50;;;;;;;172.02;93.25;;;;;;;;;;5058246;28;20111;-72
2022/01/01 04:34:16;;;;;;;129.38;69.93;;;;;;;;;;5024502;28;20021;-73
2022/01/01 04:36:49;;;;;;;143.38;70.10;;;;;;;;;;5040462;28;20087;-72
2022/01/01 04:39:15;;;;;;;116.97;59.63;;;;;;;;;;5040862;28;20027;-73
2022/01/01 04:41:41;;;;;;;81.28;43.65;;;;;;;;;;5024620;28;20082;-73
2022/01/01 04:44:08;;;;;;;104.50;57.97;;;;;;;;;;5040341;28;20060;-73
2022/01/01 04:46:35;;;;;;;113.25;66.50;;;;;;;;;;5022429;28;20033;-73
2022/01/01 04:49:03;;;;;;;130.90;76.35;;;;;;;;;;5039805;28;20055;-73
2022/01/01 04:51:28;;;;;;;125.60;71.20;;;;;;;;;;5040888;28;20036;-73
2022/01/01 04:53:59;;;;;;;119.88;71.25;;;;;;;;;;5024063;28;20017;-73
2022/01/01 04:56:28;;;;;;;135.70;77.60;;;;;;;;;;5024306;28;20451;-73
2022/01/01 04:58:55;;;;;;;145.05;83.88;;;;;;;;;;5041068;28;20021;-73
2022/01/01 05:01:21;;;;;;;104.10;57.58;;;;;;;;;;5040689;28;20025;-73
2022/01/01 05:03:48;;;;;;;57.90;30.35;;;;;;;;;;5058413;28;20013;-73
2022/01/01 05:06:14;;;;;;;68.47;40.85;;;;;;;;;;5057974;28;20037;-73
2022/01/01 05:08:40;;;;;;;56.85;29.80;;;;;;;;;;5057297;28;20028;-73
2022/01/01 05:11:06;;;;;;;63.58;35.88;;;;;;;;;;5039335;28;20346;-73
2022/01/01 05:13:32;;;;;;;56.30;27.08;;;;;;;;;;5040004;28;20111;-73
2022/01/01 05:15:58;;;;;;;25.63;11.45;;;;;;;;;;5057759;28;20104;-73
2022/01/01 05:18:24;;;;;;;22.70;10.25;;;;;;;;;;5040356;28;20032;-73
2022/01/01 05:20:50;;;;;;;18.35;8.93;;;;;;;;;;5039973;28;20020;-73
2022/01/01 05:23:16;;;;;;;21.63;12.15;;;;;;;;;;5039952;28;20120;-73
2022/01/01 05:25:42;;;;;;;20.83;11.75;;;;;;;;;;5023830;28;20120;-73
2022/01/01 05:28:08;;;;;;;18.88;10.93;;;;;;;;;;5039783;28;20422;-73
2022/01/01 05:30:34;;;;;;;15.77;9.35;;;;;;;;;;5039563;28;20060;-73
2022/01/01 05:33:01;;;;;;;19.65;9.98;;;;;;;;;;5039816;28;20324;-73
2022/01/01 05:35:29;;;;;;;17.45;9.70;;;;;;;;;;5057592;28;20027;-74
2022/01/01 05:37:55;;;;;;;22.88;12.52;;;;;;;;;;5057162;28;20036;-73
2022/01/01 05:40:23;;;;;;;22.42;12.07;;;;;;;;;;5019958;28;20017;-74
2022/01/01 05:42:53;;;;;;;21.73;10.40;;;;;;;;;;5020542;28;20334;-75
2022/01/01 05:45:20;;;;;;;26.52;11.00;;;;;;;;;;5034511;28;20047;-74
2022/01/01 05:47:47;;;;;;;19.88;10.68;;;;;;;;;;5021544;28;20119;-73
2022/01/01 05:50:13;;;;;;;26.17;11.82;;;;;;;;;;5057074;28;20451;-74
2022/01/01 05:52:39;;;;;;;19.00;9.68;;;;;;;;;;5039561;28;20334;-73
2022/01/01 05:55:05;;;;;;;17.27;9.73;;;;;;;;;;5036599;28;20047;-73
2022/01/01 05:57:31;;;;;;;24.67;10.05;;;;;;;;;;5055745;28;20021;-74
2022/01/01 05:59:58;;;;;;;14.93;9.93;;;;;;;;;;5039219;28;20339;-73
2022/01/01 06:02:24;;;;;;;14.63;7.68;;;;;;;;;;5039385;28;20025;-73
2022/01/01 06:04:49;;;;;;;17.83;8.23;;;;;;;;;;5039047;28;20312;-73
2022/01/01 06:07:15;;;;;;;15.48;7.45;;;;;;;;;;5038672;28;20116;-73
2022/01/01 06:09:42;;;;;;;12.48;7.43;;;;;;;;;;5039310;28;20032;-73
2022/01/01 06:12:08;;;;;;;20.30;8.63;;;;;;;;;;5057090;28;20028;-73
2022/01/01 06:14:35;;;;;;;15.05;7.70;;;;;;;;;;5039159;28;20020;-73
2022/01/01 06:17:01;;;;;;;20.48;8.63;;;;;;;;;;5039401;28;20029;-73
2022/01/01 06:19:27;;;;;;;168.27;90.05;;;;;;;;;;5056408;28;20069;-74
2022/01/01 06:21:53;;;;;;;178.30;103.30;;;;;;;;;;5022669;28;20064;-73
2022/01/01 06:24:19;;;;;;;205.93;109.20;;;;;;;;;;5022562;28;20473;-73
2022/01/01 06:26:45;;;;;;;178.32;98.60;;;;;;;;;;5039042;28;20041;-73
2022/01/01 06:29:11;;;;;;;154.57;89.53;;;;;;;;;;5056887;28;20088;-73
2022/01/01 06:31:38;;;;;;;164.30;89.40;;;;;;;;;;5056759;28;20036;-73
2022/01/01 06:34:05;;;;;;;160.82;89.80;;;;;;;;;;5039149;28;20024;-73
2022/01/01 06:36:31;;;;;;;136.00;76.18;;;;;;;;;;5022765;28;20029;-73
2022/01/01 06:38:57;;;;;;;125.55;69.10;;;;;;;;;;5056401;28;20025;-72
2022/01/01 06:41:25;;;;;;;109.53;62.38;;;;;;;;;;5039138;28;20029;-73
2022/01/01 06:43:51;;;;;;;103.50;60.03;;;;;;;;;;5038972;28;20120;-73
2022/01/01 06:46:17;;;;;;;96.50;54.92;;;;;;;;;;5053909;28;20067;-74
2022/01/01 06:48:43;;;;;;;95.25;52.38;;;;;;;;;;5038895;28;20481;-73
2022/01/01 06:51:09;;;;;;;89.45;52.55;;;;;;;;;;5038977;28;20064;-73
2022/01/01 06:53:35;;;;;;;89.75;51.83;;;;;;;;;;5056421;28;20044;-73
2022/01/01 06:56:05;;;;;;;87.57;43.17;;;;;;;;;;5038442;28;20021;-73
2022/01/01 06:58:32;;;;;;;78.95;43.67;;;;;;;;;;5038659;28;20055;-74
2022/01/01 07:01:08;;;;;;;80.10;41.63;;;;;;;;;;5033366;28;20025;-73
2022/01/01 07:03:34;;;;;;;71.05;40.97;;;;;;;;;;5022144;28;20055;-73
2022/01/01 07:06:08;;;;;;;66.07;33.35;;;;;;;;;;5037969;28;20039;-75
2022/01/01 07:08:36;;;;;;;73.30;38.45;;;;;;;;;;5048300;28;20032;-73
2022/01/01 07:11:02;;;;;;;52.97;28.70;;;;;;;;;;5035197;28;20515;-74
2022/01/01 07:13:29;;;;;;;55.05;30.83;;;;;;;;;;5021460;28;20395;-73
2022/01/01 07:15:55;;;;;;;61.28;30.80;;;;;;;;;;5055591;28;20343;-73
2022/01/01 07:18:21;;;;;;;60.10;32.03;;;;;;;;;;5036811;28;20017;-73
2022/01/01 07:20:47;;;;;;;60.35;26.58;;;;;;;;;;5022225;28;20111;-73
2022/01/01 07:23:13;;;;;;;43.47;25.38;;;;;;;;;;5038544;28;20438;-73
2022/01/01 07:25:39;;;;;;;51.88;26.25;;;;;;;;;;5055575;28;20025;-73
2022/01/01 07:28:05;;;;;;;51.45;27.38;;;;;;;;;;5056171;28;20029;-73
2022/01/01 07:30:31;;;;;;;54.05;26.73;;;;;;;;;;5055673;28;20017;-73
2022/01/01 07:32:58;;;;;;;53.95;27.80;;;;;;;;;;5039854;28;20097;-73
2022/01/01 07:35:25;;;;;;;67.70;31.42;;;;;;;;;;5025527;28;20017;-73
2022/01/01 07:37:52;;;;;;;53.08;27.33;;;;;;;;;;5042262;28;20021;-72
2022/01/01 07:40:18;;;;;;;57.15;30.70;;;;;;;;;;5059226;28;20017;-73
2022/01/01 07:42:44;;;;;;;51.55;24.58;;;;;;;;;;5059656;28;20021;-72
2022/01/01 07:45:12;;;;;;;46.28;27.65;;;;;;;;;;5041946;28;20025;-73
2022/01/01 07:47:38;;;;;;;56.42;27.30;;;;;;;;;;5025336;28;20028;-73
2022/01/01 07:50:05;;;;;;;43.85;26.77;;;;;;;;;;5041954;28;20029;-73
2022/01/01 07:52:35;;;;;;;42.40;22.85;;;;;;;;;;5059008;28;20435;-73
2022/01/01 07:55:02;;;;;;;30.45;17.80;;;;;;;;;;5041297;28;20017;-73
2022/01/01 07:57:32;;;;;;;31.70;16.60;;;;;;;;;;5025033;28;20032;-73
2022/01/01 07:59:58;;;;;;;31.63;17.63;;;;;;;;;;5059000;28;20021;-73
2022/01/01 08:02:24;;;;;;;25.15;12.07;;;;;;;;;;5039119;28;20028;-73
2022/01/01 08:04:50;;;;;;;31.77;14.93;;;;;;;;;;5058988;28;20111;-73
2022/01/01 08:07:17;;;;;;;35.38;18.35;;;;;;;;;;5058750;28;20029;-72
2022/01/01 08:09:43;;;;;;;26.52;13.00;;;;;;;;;;5040901;28;20024;-73
2022/01/01 08:12:09;;;;;;;24.42;13.88;;;;;;;;;;5025179;28;20123;-73
2022/01/01 08:14:35;;;;;;;22.60;10.23;;;;;;;;;;5040431;28;20017;-73
2022/01/01 08:17:06;;;;;;;24.55;11.63;;;;;;;;;;5041099;28;20090;-73
2022/01/01 08:19:32;;;;;;;;;;;;;;;;;;5041722;28;20105;-73
2022/01/01 08:21:59;;;;;;;32.70;14.00;;;;;;;;;;5058978;28;19905;-73
2022/01/01 08:24:25;;;;;;;26.92;11.95;;;;;;;;;;5040349;28;20021;-73
2022/01/01 08:26:51;;;;;;;24.80;11.75;;;;;;;;;;5024555;28;20418;-73
2022/01/01 08:29:18;;;;;;;32.65;14.13;;;;;;;;;;5058348;28;20025;-73
2022/01/01 08:31:44;;;;;;;32.95;13.50;;;;;;;;;;5058407;28;20056;-73
2022/01/01 08:34:10;;;;;;;26.77;14.07;;;;;;;;;;5041051;28;20021;-73
2022/01/01 08:36:45;;;;;;;25.23;10.57;;;;;;;;;;5023050;28;20112;-74
2022/01/01 08:39:15;;;;;;;20.13;9.60;;;;;;;;;;5024146;28;20020;-73
2022/01/01 08:41:42;;;;;;;19.55;9.05;;;;;;;;;;5040645;28;20370;-73
2022/01/01 08:44:08;;;;;;;18.35;9.48;;;;;;;;;;5055879;28;20334;-73
2022/01/01 08:46:35;;;;;;;36.03;11.45;;;;;;;;;;5024296;28;20033;-73
2022/01/01 08:49:05;;;;;;;22.20;8.38;;;;;;;;;;5020392;28;20017;-73
2022/01/01 08:51:32;;;;;;;20.38;9.90;;;;;;;;;;5023775;28;20063;-73
2022/01/01 08:53:58;;;;;;;23.50;9.75;;;;;;;;;;5024549;28;20021;-73
2022/01/01 08:56:25;;;;;;;21.27;10.23;;;;;;;;;;5040325;28;20068;-73
2022/01/01 08:58:51;;;;;;;18.25;7.85;;;;;;;;;;5041057;28;20049;-73
2022/01/01 09:01:17;;;;;;;19.83;10.38;;;;;;;;;;5040039;28;20021;-73
2022/01/01 09:03:43;;;;;;;18.60;9.32;;;;;;;;;;5023905;28;20099;-73
2022/01/01 09:06:10;;;;;;;21.42;10.07;;;;;;;;;;5040318;28;20040;-73
2022/01/01 09:08:39;;;;;;;17.15;9.52;;;;;;;;;;5038801;28;20032;-74
2022/01/01 09:11:07;;;;;;;20.40;9.90;;;;;;;;;;5039914;28;20025;-73
2022/01/01 09:13:34;;;;;;;22.42;9.65;;;;;;;;;;5024015;28;20021;-72
2022/01/01 09:16:00;;;;;;;21.15;10.05;;;;;;;;;;5057630;28;20378;-72
2022/01/01 09:18:26;;;;;;;24.52;11.60;;;;;;;;;;5056929;28;20106;-73
2022/01/01 09:20:52;;;;;;;16.38;8.25;;;;;;;;;;5023696;28;20415;-73
2022/01/01 09:23:21;;;;;;;19.75;7.55;;;;;;;;;;5036284;28;20120;-74
2022/01/01 09:25:47;;;;;;;16.85;8.88;;;;;;;;;;5040193;28;20025;-73
2022/01/01 09:28:17;;;;;;;13.93;7.35;;;;;;;;;;5056960;28;20086;-74
2022/01/01 09:30:45;;;;;;;17.08;7.00;;;;;;;;;;5023763;28;20411;-73
2022/01/01 09:33:12;;;;;;;20.77;5.63;;;;;;;;;;5057145;28;20017;-73
2022/01/01 09:35:41;;;;;;;27.60;9.48;;;;;;;;;;5020984;28;20016;-74
2022/01/01 09:38:09;;;;;;;22.10;8.52;;;;;;;;;;5039607;28;20021;-73
2022/01/01 09:40:36;;;;;;;14.30;6.18;;;;;;;;;;5022732;28;20024;-73
2022/01/01 09:43:03;;;;;;;12.43;6.40;;;;;;;;;;5023141;28;20025;-73
2022/01/01 09:45:33;;;;;;;42.50;16.90;;;;;;;;;;5039633;28;20029;-73
2022/01/01 09:48:00;;;;;;;20.45;6.00;;;;;;;;;;5022885;28;20465;-73
2022/01/01 09:50:27;;;;;;;22.08;8.77;;;;;;;;;;5039038;28;20028;-73
2022/01/01 09:52:53;;;;;;;11.43;6.68;;;;;;;;;;5039526;28;20028;-73
2022/01/01 09:55:20;;;;;;;26.98;13.23;;;;;;;;;;5022453;28;20028;-73
2022/01/01 09:57:48;;;;;;;41.58;19.25;;;;;;;;;;5022959;28;20116;-73
2022/01/01 10:00:15;;;;;;;55.65;17.25;;;;;;;;;;5022789;28;20017;-73
2022/01/01 10:02:42;;;;;;;31.95;16.88;;;;;;;;;;5039310;28;20082;-73
2022/01/01 10:05:08;;;;;;;51.80;19.98;;;;;;;;;;5022015;28;20029;-73
2022/01/01 10:07:36;;;;;;;53.58;24.17;;;;;;;;;;5038699;28;20384;-73
2022/01/01 10:10:16;;;;;;;54.67;24.95;;;;;;;;;;5022718;28;20016;-73
2022/01/01 10:12:43;;;;;;;69.72;31.70;;;;;;;;;;5022985;28;20323;-73
2022/01/01 10:15:11;;;;;;;73.22;30.83;;;;;;;;;;5038791;28;20312;-73
2022/01/01 10:17:38;;;;;;;65.25;26.38;;;;;;;;;;5022548;28;20032;-73
2022/01/01 10:20:04;;;;;;;72.20;31.90;;;;;;;;;;5039029;28;20021;-73
2022/01/01 10:22:30;;;;;;;99.28;42.08;;;;;;;;;;5057131;28;20078;-73
2022/01/01 10:27:58;;;;;;;85.25;38.08;;;;;;;;;;5056229;28;20033;-73
2022/01/01 10:30:30;;;;;;;79.40;40.67;;;;;;;;;;5039000;28;20023;-73
2022/01/01 10:32:59;;;;;;;80.95;35.28;;;;;;;;;;5056336;28;20021;-73
2022/01/01 10:35:26;;;;;;;79.78;40.28;;;;;;;;;;5022706;28;20021;-73
2022/01/01 10:37:52;;;;;;;91.72;41.45;;;;;;;;;;5038955;28;20323;-73
2022/01/01 10:40:26;;;;;;;81.80;40.30;;;;;;;;;;5038843;28;20028;-73
2022/01/01 10:42:52;;;;;;;86.47;39.67;;;;;;;;;;5039246;28;20021;-73
2022/01/01 10:45:29;;;;;;;81.88;37.05;;;;;;;;;;5038892;28;20139;-73
2022/01/01 10:48:13;;;;;;;81.15;40.08;;;;;;;;;;5022063;28;20044;-73
2022/01/01 10:50:42;;;;;;;75.78;35.67;;;;;;;;;;5038376;28;20415;-73
2022/01/01 10:53:16;;;;;;;76.20;36.95;;;;;;;;;;5038151;28;20017;-73
2022/01/01 10:55:46;;;;;;;82.00;36.95;;;;;;;;;;5021979;28;20162;-73
2022/01/01 10:58:17;;;;;;;81.68;35.47;;;;;;;;;;5038527;28;20415;-73
2022/01/01 11:00:43;;;;;;;;;;;;;;;;;;5022707;28;20025;-73
2022/01/01 11:03:09;;;;;;;67.70;33.58;;;;;;;;;;5038131;28;19915;-73
2022/01/01 11:05:37;;;;;;;78.20;39.03;;;;;;;;;;5021798;28;20033;-73
2022/01/01 11:08:05;;;;;;;73.32;36.33;;;;;;;;;;5040468;28;20035;-73
2022/01/01 11:10:32;;;;;;;105.25;37.10;;;;;;;;;;5042036;28;20017;-73
2022/01/01 11:13:00;;;;;;;78.30;36.85;;;;;;;;;;5042211;28;20094;-73
2022/01/01 11:15:31;;;;;;;71.82;36.28;;;;;;;;;;5025521;28;20024;-73
2022/01/01 11:17:58;;;;;;;84.68;36.50;;;;;;;;;;5041774;28;20056;-73
2022/01/01 11:20:30;;;;;;;78.13;38.28;;;;;;;;;;5042056;28;20017;-73
2022/01/01 11:22:56;;;;;;;75.85;38.47;;;;;;;;;;5025572;28;20020;-73
2022/01/01 11:25:24;;;;;;;77.68;38.15;;;;;;;;;;5025332;28;20419;-73
2022/01/01 11:27:53;;;;;;;82.32;40.83;;;;;;;;;;5041809;28;20033;-73
2022/01/01 11:30:20;;;;;;;111.68;53.63;;;;;;;;;;5041758;28;20371;-73
2022/01/01 11:32:53;;;;;;;242.85;128.88;;;;;;;;;;5024755;28;20017;-73
2022/01/01 11:35:27;;;;;;;260.13;137.00;;;;;;;;;;5040146;28;20020;-73
2022/01/01 11:37:54;;;;;;;222.00;121.10;;;;;;;;;;5041006;28;20032;-73
2022/01/01 11:40:22;;;;;;;224.95;117.25;;;;;;;;;;5025550;28;20021;-73
2022/01/01 11:42:49;;;;;;;258.33;132.23;;;;;;;;;;5025549;28;20507;-73
2022/01/01 11:45:48;;;;;;;288.20;154.98;;;;;;;;;;5058778;28;20021;-73
2022/01/01 11:48:36;;;;;;;303.63;170.20;;;;;;;;;;5008157;28;20040;-73
2022/01/01 11:51:22;;;;;;;272.85;160.18;;;;;;;;;;5057238;28;20423;-73
2022/01/01 11:54:07;;;;;;;241.98;132.18;;;;;;;;;;5032448;28;20184;-74
2022/01/01 11:56:46;;;;;;;216.35;109.88;;;;;;;;;;5015115;28;20095;-74
2022/01/01 11:59:29;;;;;;;247.63;139.88;;;;;;;;;;5025549;28;20032;-73
2022/01/01 12:01:58;;;;;;;260.13;137.10;;;;;;;;;;5024423;28;20377;-73
2022/01/01 12:04:31;;;;;;;169.07;83.03;;;;;;;;;;5040569;28;20043;-73
2022/01/01 12:06:59;;;;;;;213.38;112.68;;;;;;;;;;5024741;28;20036;-73
2022/01/01 12:09:25;;;;;;;258.58;127.40;;;;;;;;;;5024427;28;20079;-73
2022/01/01 12:11:57;;;;;;;235.60;121.47;;;;;;;;;;5058453;28;20013;-73
2022/01/01 12:14:30;;;;;;;203.98;102.68;;;;;;;;;;5025105;28;20028;-73
2022/01/01 12:16:57;;;;;;;188.52;100.72;;;;;;;;;;5024746;28;20081;-74
2022/01/01 12:19:28;;;;;;;201.93;100.30;;;;;;;;;;5040696;28;20124;-73
2022/01/01 12:22:07;;;;;;;199.70;93.72;;;;;;;;;;5040580;28;20048;-73
2022/01/01 12:24:38;;;;;;;194.13;91.43;;;;;;;;;;5022393;28;20029;-73
2022/01/01 12:27:13;;;;;;;195.75;95.63;;;;;;;;;;5024927;28;20127;-73
2022/01/01 12:29:40;;;;;;;175.57;88.78;;;;;;;;;;5040901;28;20330;-73
2022/01/01 12:32:08;;;;;;;180.90;89.13;;;;;;;;;;5024384;28;20448;-73
2022/01/01 12:34:36;;;;;;;156.50;76.40;;;;;;;;;;5040869;28;20327;-73
2022/01/01 12:37:12;;;;;;;155.35;72.93;;;;;;;;;;5039988;28;20017;-73
2022/01/01 12:39:58;;;;;;;164.27;72.47;;;;;;;;;;5040592;28;20025;-73
2022/01/01 12:42:32;;;;;;;153.82;72.10;;;;;;;;;;5024124;28;20049;-73
2022/01/01 12:45:01;;;;;;;149.68;73.78;;;;;;;;;;5024083;28;20021;-73
2022/01/01 12:47:32;;;;;;;134.80;64.93;;;;;;;;;;5039186;28;20094;-74
2022/01/01 12:50:01;;;;;;;133.68;66.85;;;;;;;;;;5037149;28;20021;-74
2022/01/01 12:52:29;;;;;;;155.00;76.47;;;;;;;;;;5023570;28;20021;-73
2022/01/01 12:55:02;;;;;;;158.85;78.70;;;;;;;;;;5038913;28;20025;-73
2022/01/01 12:57:38;;;;;;;168.25;78.68;;;;;;;;;;5019517;28;20419;-73
2022/01/01 13:00:22;;;;;;;162.18;81.07;;;;;;;;;;5023747;28;20442;-73
2022/01/01 13:02:54;;;;;;;165.55;80.55;;;;;;;;;;5040302;28;20330;-73
2022/01/01 13:05:22;;;;;;;157.48;76.88;;;;;;;;;;5057715;28;20039;-73
2022/01/01 13:08:04;;;;;;;167.52;77.72;;;;;;;;;;5022291;28;20143;-73
2022/01/01 13:10:33;;;;;;;165.70;79.05;;;;;;;;;;5023367;28;20098;-73
2022/01/01 13:13:04;;;;;;;173.90;80.30;;;;;;;;;;5039534;28;20053;-73
2022/01/01 13:15:33;;;;;;;163.65;78.18;;;;;;;;;;5058000;28;20028;-73
2022/01/01 13:18:01;;;;;;;173.80;82.30;;;;;;;;;;5039387;28;20454;-73
2022/01/01 13:20:29;;;;;;;199.85;98.05;;;;;;;;;;5023620;28;20020;-73
2022/01/01 13:23:05;;;;;;;206.45;95.95;;;;;;;;;;5023474;28;20020;-73
2022/01/01 13:25:32;;;;;;;203.23;100.28;;;;;;;;;;5022815;28;20020;-73
2022/01/01 13:28:02;;;;;;;209.23;101.70;;;;;;;;;;5023532;28;20123;-73
2022/01/01 13:30:30;;;;;;;205.15;107.78;;;;;;;;;;5021174;28;20048;-73
2022/01/01 13:32:58;;;;;;;219.07;114.38;;;;;;;;;;5022963;28;20423;-73
2022/01/01 13:35:27;;;;;;;207.55;114.90;;;;;;;;;;5023159;28;20031;-73
2022/01/01 13:37:54;;;;;;;239.98;125.35;;;;;;;;;;5039197;28;20017;-73
2022/01/01 13:40:21;;;;;;;235.40;124.38;;;;;;;;;;5039610;28;20342;-73
2022/01/01 13:42:50;;;;;;;262.40;144.27;;;;;;;;;;5057156;28;20028;-73
2022/01/01 13:45:17;;;;;;;251.07;135.70;;;;;;;;;;5039806;28;20075;-73
2022/01/01 13:47:43;;;;;;;270.77;141.48;;;;;;;;;;5022829;28;20037;-73
2022/01/01 13:50:17;;;;;;;295.95;155.32;;;;;;;;;;5056130;28;20025;-73
2022/01/01 13:52:58;;;;;;;351.83;181.93;;;;;;;;;;5022822;28;20112;-73
2022/01/01 13:55:28;;;;;;;338.98;171.40;;;;;;;;;;5021598;28;20055;-73
2022/01/01 13:57:56;;;;;;;348.05;172.93;;;;;;;;;;5021983;28;20443;-73
2022/01/01 14:00:27;;;;;;;432.55;232.77;;;;;;;;;;5022408;28;20025;-73
2022/01/01 14:02:56;;;;;;;362.75;198.23;;;;;;;;;;5038908;28;20104;-73
2022/01/01 14:05:29;;;;;;;410.33;214.93;;;;;;;;;;5021799;28;20029;-73
2022/01/01 14:08:12;;;;;;;452.58;236.75;;;;;;;;;;5022813;28;20426;-73
2022/01/01 14:10:38;;;;;;;430.75;232.43;;;;;;;;;;5023039;28;20020;-73
2022/01/01 14:13:08;;;;;;;458.50;246.75;;;;;;;;;;5022878;28;20021;-73
2022/01/01 14:15:38;;;;;;;511.30;295.63;;;;;;;;;;5038036;28;20445;-73
2022/01/01 14:18:07;;;;;;;489.13;282.45;;;;;;;;;;5038929;28;20060;-73
2022/01/01 14:20:37;;;;;;;464.92;260.35;;;;;;;;;;5021799;28;20418;-73
2022/01/01 14:23:06;;;;;;;416.65;224.25;;;;;;;;;;5022293;28;20047;-73
2022/01/01 14:25:41;;;;;;;442.55;244.00;;;;;;;;;;5038497;28;20094;-73
2022/01/01 14:28:15;;;;;;;450.83;248.38;;;;;;;;;;5021718;28;20398;-73
2022/01/01 14:30:43;;;;;;;456.17;251.15;;;;;;;;;;5056128;28;20021;-73
2022/01/01 14:33:11;;;;;;;474.25;266.13;;;;;;;;;;5022482;28;20024;-73